LFRTLFRB

Guest
Details From LFRT - Saint Brieuc Armor
To LFRB - Brest Bretagne
Flight Number -
Tags generated
Created
Modified
Stats Distance 62 nm / 116 km
Max Altitude 7,100 ft / 2,164 m
Waypoints 3
Social Downloads 1
Likes 0
Share VATSIM

Download

Looking for another format? Having issues loading an existing format? Contact us
Advertisement - Login to hide

Notes

Basic altitude profile: - Ascent Rate: 2500ft/min - Ascent Speed: 250kts - Cruise Altitude: 35000ft - Cruise Speed: 420kts - Descent Rate: 1500ft/min - Descent Speed: 250kts Options: - Use NATs: yes - Use PACOTS: yes - Use low airways: yes - Use high airways: yes

Route

LFRT LARSI LFRB

ID Type Via Altitude Latitude Longitude Leg Dist Tot Dist Heading (true) Name
O LFRT APT - 0 ft / 0 m 48.53826˚ -2.85461˚ - 0 nm - Saint Brieuc Armor
LARSI FIX - 7,100 ft / 2,164 m 48.51639˚ -3.59167˚ 29 nm 29 nm 268° / 267° -
O LFRB APT - 0 ft / 0 m 48.44938˚ -4.41823˚ 33 nm 62 nm 263° / 263° Brest Bretagne

Altitude Profile

Advertisement - Login to hide

LFRT

Details ICAO LFRT (SBK)
Name Saint Brieuc Armor
Region France
Timezone Europe/Paris (UTC+1.0)
Stats Elevation 452 ft / 138 m (AMSL)
Location 48.538265° -2.854612°
Runways 1
Magnetic Variation 1.051° W

METAR

LFRT 171630Z AUTO 27008KT 9999 SCT037 OVC072 09/07 Q1027

Decode

TAF

Not found

Departure Runways

ID Width Length Bearing (true) Bearing (mag) Surface Threshold Offset Overrun Length
06 148 ft / 45 m 7,214 ft / 2,199 m 58.77° 59.82° Asphalt 0 ft / 0 m 0 ft / 0 m
24 148 ft / 45 m 7,214 ft / 2,199 m 238.79° 239.84° Asphalt 0 ft / 0 m 0 ft / 0 m

LFRB

Details ICAO LFRB (BES)
Name Brest Bretagne
Region France
Timezone Europe/Paris (UTC+1.0)
Stats Elevation 325 ft / 99 m (AMSL)
Location 48.449376° -4.418232°
Runways 2
Magnetic Variation 1.575° W

METAR

LFRB 171630Z AUTO 25009KT 9999 FEW037 BKN043 OVC070 10/08 Q1028 BECMG 4000 -RA BKN013

Decode

TAF

TAF LFRB 171100Z 1712/1818 24006KT 9999 BKN028 BKN066 BECMG 1715/1717 4000 -RA BKN013 BECMG 1803/1806 34007KT TEMPO 1720/1809 2000 DZ OVC006 BECMG 1809/1812 BKN025

Decode

Destination Runways

ID Width Length Bearing (true) Bearing (mag) Surface Threshold Offset Overrun Length
07L 62 ft / 19 m 2,518 ft / 768 m 71.21° 72.78° Asphalt 131 ft / 40 m 0 ft / 0 m
07R 148 ft / 45 m 10,153 ft / 3,095 m 71.16° 72.73° Asphalt 0 ft / 0 m 0 ft / 0 m
25L 148 ft / 45 m 10,153 ft / 3,095 m 251.19° 252.76° Asphalt 984 ft / 300 m 0 ft / 0 m
25R 62 ft / 19 m 2,518 ft / 768 m 251.22° 252.79° Asphalt 112 ft / 34 m 0 ft / 0 m

Approach Navaids

Runway Type Ident Frequency Range Bearing (true) Bearing (mag) Slope Elevation
25L Localiser BG 109.90 MHz 27 nm / 50 km 251.20° 252.77° - 325 ft / 99 m (AMSL)
25L Glidescope BG 109.90 MHz 27 nm / 50 km 251.20° 252.77° 3.00° 325 ft / 99 m (AMSL)
25L DME BG 109.90 MHz 27 nm / 50 km - - - 325 ft / 99 m (AMSL)

Popular Alternatives